Terminal Aerodrome Forecast
Issued by NWS

Home | Current Version | Previous Version | Text Only | Print | Product List | Glossary On
Versions: 1 2 3 4 5 6 7 8 9 10 11 12 13 14 15 16 17 18 19 20 21
916
FTUS41 KCAR 171152
TAFFVE
TAF
KFVE 171152Z 1712/1812 30013G23KT P6SM BKN150
     FM172000 32011G19KT P6SM SCT050
     FM172300 31007KT P6SM FEW060=

USA.gov is the U.S. government's official web portal to all federal, state and local government web resources and services.